sensor_id;sensor_type;location;lat;lon;timestamp;P1;durP1;ratioP1;P2;durP2;ratioP2
82125;SDS011;71668;51.400;6.758;2024-03-25T08:29:10;15.03;;;6.10;;
82125;SDS011;71668;51.400;6.758;2024-03-25T08:31:36;15.33;;;5.60;;
82125;SDS011;71668;51.400;6.758;2024-03-25T08:34:02;16.80;;;5.77;;
82125;SDS011;71668;51.400;6.758;2024-03-25T08:36:34;15.13;;;6.63;;
82125;SDS011;71668;51.400;6.758;2024-03-25T08:39:03;14.37;;;6.43;;
82125;SDS011;71668;51.400;6.758;2024-03-25T08:41:29;17.17;;;7.40;;
82125;SDS011;71668;51.400;6.758;2024-03-25T08:43:55;16.63;;;6.80;;
82125;SDS011;71668;51.400;6.758;2024-03-25T08:46:21;17.70;;;7.67;;
82125;SDS011;71668;51.400;6.758;2024-03-25T08:48:47;21.17;;;6.77;;
82125;SDS011;71668;51.400;6.758;2024-03-25T08:51:16;15.83;;;6.40;;
82125;SDS011;71668;51.400;6.758;2024-03-25T08:53:42;19.67;;;7.17;;
82125;SDS011;71668;51.400;6.758;2024-03-25T08:56:07;20.37;;;7.27;;
82125;SDS011;71668;51.400;6.758;2024-03-25T08:58:33;15.93;;;7.27;;
82125;SDS011;71668;51.400;6.758;2024-03-25T09:01:00;16.10;;;6.60;;
82125;SDS011;71668;51.400;6.758;2024-03-25T09:03:26;16.03;;;6.10;;
82125;SDS011;71668;51.400;6.758;2024-03-25T09:05:53;14.37;;;6.00;;
82125;SDS011;71668;51.400;6.758;2024-03-25T09:08:19;15.30;;;5.97;;
82125;SDS011;71668;51.400;6.758;2024-03-25T09:10:46;13.20;;;5.87;;
82125;SDS011;71668;51.400;6.758;2024-03-25T09:13:32;14.50;;;5.47;;
82125;SDS011;71668;51.400;6.758;2024-03-25T09:15:58;10.80;;;3.20;;
82125;SDS011;71668;51.400;6.758;2024-03-25T09:18:24;9.73;;;4.07;;
82125;SDS011;71668;51.400;6.758;2024-03-25T09:20:51;12.70;;;3.63;;
82125;SDS011;71668;51.400;6.758;2024-03-25T09:23:17;11.70;;;5.17;;
82125;SDS011;71668;51.400;6.758;2024-03-25T09:25:53;5.97;;;2.47;;
82125;SDS011;71668;51.400;6.758;2024-03-25T09:28:19;8.20;;;3.00;;
82125;SDS011;71668;51.400;6.758;2024-03-25T09:30:45;10.57;;;3.70;;
82125;SDS011;71668;51.400;6.758;2024-03-25T09:33:14;9.97;;;3.33;;
82125;SDS011;71668;51.400;6.758;2024-03-25T09:35:40;12.67;;;4.20;;
82125;SDS011;71668;51.400;6.758;2024-03-25T09:38:06;8.80;;;3.13;;
82125;SDS011;71668;51.400;6.758;2024-03-25T09:40:34;9.33;;;3.50;;
82125;SDS011;71668;51.400;6.758;2024-03-25T09:43:03;7.93;;;3.20;;
82125;SDS011;71668;51.400;6.758;2024-03-25T09:45:31;7.53;;;3.30;;
82125;SDS011;71668;51.400;6.758;2024-03-25T09:47:59;7.87;;;3.60;;
82125;SDS011;71668;51.400;6.758;2024-03-25T09:50:25;8.17;;;3.60;;
82125;SDS011;71668;51.400;6.758;2024-03-25T09:52:52;11.63;;;4.37;;
82125;SDS011;71668;51.400;6.758;2024-03-25T09:55:17;9.10;;;4.17;;
82125;SDS011;71668;51.400;6.758;2024-03-25T09:57:43;10.93;;;4.23;;
82125;SDS011;71668;51.400;6.758;2024-03-25T10:00:10;7.00;;;3.30;;
82125;SDS011;71668;51.400;6.758;2024-03-25T10:02:42;12.17;;;3.60;;
82125;SDS011;71668;51.400;6.758;2024-03-25T10:05:09;7.40;;;3.43;;
82125;SDS011;71668;51.400;6.758;2024-03-25T10:07:35;8.50;;;3.83;;
82125;SDS011;71668;51.400;6.758;2024-03-25T10:10:04;7.80;;;3.20;;
82125;SDS011;71668;51.400;6.758;2024-03-25T10:12:31;8.07;;;3.07;;
82125;SDS011;71668;51.400;6.758;2024-03-25T10:14:57;6.87;;;3.20;;
82125;SDS011;71668;51.400;6.758;2024-03-25T10:17:24;8.77;;;3.40;;
82125;SDS011;71668;51.400;6.758;2024-03-25T10:19:50;6.60;;;2.90;;
82125;SDS011;71668;51.400;6.758;2024-03-25T10:22:18;7.37;;;3.40;;
82125;SDS011;71668;51.400;6.758;2024-03-25T10:24:45;8.00;;;3.83;;
82125;SDS011;71668;51.400;6.758;2024-03-25T10:27:17;9.90;;;4.03;;
82125;SDS011;71668;51.400;6.758;2024-03-25T10:29:47;9.33;;;4.37;;
82125;SDS011;71668;51.400;6.758;2024-03-25T10:32:22;8.77;;;4.73;;
82125;SDS011;71668;51.400;6.758;2024-03-25T10:34:56;9.50;;;4.67;;
82125;SDS011;71668;51.400;6.758;2024-03-25T10:37:23;10.87;;;5.23;;
82125;SDS011;71668;51.400;6.758;2024-03-25T10:39:53;12.23;;;5.23;;
82125;SDS011;71668;51.400;6.758;2024-03-25T10:42:24;8.63;;;4.47;;
82125;SDS011;71668;51.400;6.758;2024-03-25T10:44:51;8.10;;;3.87;;
82125;SDS011;71668;51.400;6.758;2024-03-25T10:47:25;9.00;;;4.50;;
82125;SDS011;71668;51.400;6.758;2024-03-25T10:49:59;10.20;;;4.53;;
82125;SDS011;71668;51.400;6.758;2024-03-25T10:52:31;7.73;;;4.60;;
82125;SDS011;71668;51.400;6.758;2024-03-25T10:54:58;9.50;;;4.60;;
82125;SDS011;71668;51.400;6.758;2024-03-25T10:57:24;10.67;;;4.43;;
82125;SDS011;71668;51.400;6.758;2024-03-25T10:59:51;9.73;;;4.40;;
82125;SDS011;71668;51.400;6.758;2024-03-25T11:02:20;8.77;;;4.57;;
82125;SDS011;71668;51.400;6.758;2024-03-25T11:04:47;8.67;;;3.73;;
82125;SDS011;71668;51.400;6.758;2024-03-25T11:07:15;9.50;;;4.00;;
82125;SDS011;71668;51.400;6.758;2024-03-25T11:09:41;8.47;;;4.57;;
82125;SDS011;71668;51.400;6.758;2024-03-25T11:12:11;7.80;;;4.10;;
82125;SDS011;71668;51.400;6.758;2024-03-25T11:14:39;10.00;;;4.40;;
82125;SDS011;71668;51.400;6.758;2024-03-25T11:17:16;10.20;;;4.53;;
82125;SDS011;71668;51.400;6.758;2024-03-25T11:19:42;8.90;;;5.20;;
82125;SDS011;71668;51.400;6.758;2024-03-25T11:22:09;11.23;;;5.27;;
82125;SDS011;71668;51.400;6.758;2024-03-25T11:24:36;10.30;;;5.10;;
82125;SDS011;71668;51.400;6.758;2024-03-25T11:27:05;8.70;;;4.50;;
82125;SDS011;71668;51.400;6.758;2024-03-25T11:29:32;8.87;;;4.70;;
82125;SDS011;71668;51.400;6.758;2024-03-25T11:32:05;11.03;;;3.73;;
82125;SDS011;71668;51.400;6.758;2024-03-25T11:34:33;12.57;;;4.90;;
82125;SDS011;71668;51.400;6.758;2024-03-25T11:37:00;8.10;;;3.87;;
82125;SDS011;71668;51.400;6.758;2024-03-25T11:39:27;7.73;;;3.93;;
82125;SDS011;71668;51.400;6.758;2024-03-25T11:41:54;8.30;;;3.97;;
82125;SDS011;71668;51.400;6.758;2024-03-25T11:44:20;7.77;;;3.90;;
82125;SDS011;71668;51.400;6.758;2024-03-25T11:46:51;7.30;;;3.80;;
82125;SDS011;71668;51.400;6.758;2024-03-25T11:49:20;5.63;;;3.00;;
82125;SDS011;71668;51.400;6.758;2024-03-25T11:51:46;6.50;;;2.67;;
82125;SDS011;71668;51.400;6.758;2024-03-25T11:54:13;6.70;;;3.20;;
82125;SDS011;71668;51.400;6.758;2024-03-25T11:56:39;8.57;;;3.43;;
82125;SDS011;71668;51.400;6.758;2024-03-25T11:59:05;7.87;;;3.80;;
82125;SDS011;71668;51.400;6.758;2024-03-25T12:01:32;9.37;;;3.73;;
82125;SDS011;71668;51.400;6.758;2024-03-25T12:04:11;7.23;;;3.70;;
82125;SDS011;71668;51.400;6.758;2024-03-25T12:06:37;6.77;;;3.07;;
82125;SDS011;71668;51.400;6.758;2024-03-25T12:09:03;8.10;;;3.50;;
82125;SDS011;71668;51.400;6.758;2024-03-25T12:11:48;8.57;;;3.37;;
82125;SDS011;71668;51.400;6.758;2024-03-25T12:14:14;9.70;;;3.67;;
82125;SDS011;71668;51.400;6.758;2024-03-25T12:16:41;8.10;;;3.67;;
82125;SDS011;71668;51.400;6.758;2024-03-25T12:19:08;9.70;;;3.40;;
82125;SDS011;71668;51.400;6.758;2024-03-25T12:21:34;7.30;;;3.30;;
82125;SDS011;71668;51.400;6.758;2024-03-25T12:24:02;7.17;;;3.77;;
82125;SDS011;71668;51.400;6.758;2024-03-25T12:26:30;7.60;;;3.67;;
82125;SDS011;71668;51.400;6.758;2024-03-25T12:28:57;7.40;;;3.70;;
82125;SDS011;71668;51.400;6.758;2024-03-25T12:31:23;11.23;;;4.30;;
82125;SDS011;71668;51.400;6.758;2024-03-25T12:33:50;5.93;;;3.30;;
82125;SDS011;71668;51.400;6.758;2024-03-25T12:36:16;5.93;;;3.60;;
82125;SDS011;71668;51.400;6.758;2024-03-25T12:38:42;7.03;;;3.80;;
82125;SDS011;71668;51.400;6.758;2024-03-25T12:41:13;9.07;;;4.13;;
82125;SDS011;71668;51.400;6.758;2024-03-25T12:43:43;12.13;;;5.23;;
82125;SDS011;71668;51.400;6.758;2024-03-25T12:46:09;6.67;;;3.80;;
82125;SDS011;71668;51.400;6.758;2024-03-25T12:48:39;8.00;;;3.67;;
82125;SDS011;71668;51.400;6.758;2024-03-25T12:51:12;8.50;;;4.17;;
82125;SDS011;71668;51.400;6.758;2024-03-25T12:53:40;8.60;;;3.80;;
82125;SDS011;71668;51.400;6.758;2024-03-25T12:56:06;10.00;;;4.77;;
82125;SDS011;71668;51.400;6.758;2024-03-25T12:58:33;7.63;;;3.90;;
82125;SDS011;71668;51.400;6.758;2024-03-25T13:00:59;4.60;;;3.40;;
82125;SDS011;71668;51.400;6.758;2024-03-25T13:03:26;5.47;;;3.20;;
82125;SDS011;71668;51.400;6.758;2024-03-25T13:05:52;6.67;;;3.57;;
82125;SDS011;71668;51.400;6.758;2024-03-25T13:08:19;6.77;;;3.60;;
82125;SDS011;71668;51.400;6.758;2024-03-25T13:10:45;7.27;;;4.23;;
82125;SDS011;71668;51.400;6.758;2024-03-25T13:13:11;8.10;;;4.07;;
82125;SDS011;71668;51.400;6.758;2024-03-25T13:15:37;7.07;;;3.53;;
82125;SDS011;71668;51.400;6.758;2024-03-25T13:18:03;5.40;;;3.50;;
82125;SDS011;71668;51.400;6.758;2024-03-25T13:20:29;8.43;;;3.77;;
82125;SDS011;71668;51.400;6.758;2024-03-25T13:22:55;9.43;;;3.90;;
82125;SDS011;71668;51.400;6.758;2024-03-25T13:25:24;10.87;;;3.60;;
82125;SDS011;71668;51.400;6.758;2024-03-25T13:27:52;9.10;;;4.27;;
82125;SDS011;71668;51.400;6.758;2024-03-25T13:30:18;7.40;;;3.67;;
82125;SDS011;71668;51.400;6.758;2024-03-25T13:32:44;8.70;;;3.70;;
82125;SDS011;71668;51.400;6.758;2024-03-25T13:35:11;6.53;;;3.77;;
82125;SDS011;71668;51.400;6.758;2024-03-25T13:37:37;7.40;;;3.43;;
82125;SDS011;71668;51.400;6.758;2024-03-25T13:40:03;8.07;;;4.30;;
82125;SDS011;71668;51.400;6.758;2024-03-25T13:42:31;9.67;;;4.63;;
82125;SDS011;71668;51.400;6.758;2024-03-25T13:44:57;6.30;;;3.13;;
82125;SDS011;71668;51.400;6.758;2024-03-25T13:47:23;7.73;;;3.73;;
82125;SDS011;71668;51.400;6.758;2024-03-25T13:49:49;5.93;;;3.37;;
82125;SDS011;71668;51.400;6.758;2024-03-25T13:52:25;5.63;;;3.50;;
82125;SDS011;71668;51.400;6.758;2024-03-25T13:54:51;8.17;;;3.43;;
82125;SDS011;71668;51.400;6.758;2024-03-25T13:57:17;6.50;;;3.57;;
82125;SDS011;71668;51.400;6.758;2024-03-25T13:59:43;8.20;;;4.47;;
82125;SDS011;71668;51.400;6.758;2024-03-25T14:02:08;7.23;;;3.97;;
82125;SDS011;71668;51.400;6.758;2024-03-25T14:04:34;6.33;;;4.33;;
82125;SDS011;71668;51.400;6.758;2024-03-25T14:07:00;6.13;;;3.73;;
82125;SDS011;71668;51.400;6.758;2024-03-25T14:09:26;8.90;;;4.53;;
82125;SDS011;71668;51.400;6.758;2024-03-25T14:11:53;8.23;;;4.13;;
82125;SDS011;71668;51.400;6.758;2024-03-25T14:14:19;6.83;;;3.33;;
82125;SDS011;71668;51.400;6.758;2024-03-25T14:16:45;8.90;;;2.97;;
82125;SDS011;71668;51.400;6.758;2024-03-25T14:19:11;5.63;;;2.60;;
82125;SDS011;71668;51.400;6.758;2024-03-25T14:21:37;6.43;;;2.53;;
82125;SDS011;71668;51.400;6.758;2024-03-25T14:24:06;6.97;;;3.17;;
82125;SDS011;71668;51.400;6.758;2024-03-25T14:26:33;6.20;;;2.90;;
82125;SDS011;71668;51.400;6.758;2024-03-25T14:28:59;6.47;;;3.33;;
82125;SDS011;71668;51.400;6.758;2024-03-25T14:31:25;6.17;;;2.43;;
82125;SDS011;71668;51.400;6.758;2024-03-25T14:33:51;5.57;;;2.43;;
82125;SDS011;71668;51.400;6.758;2024-03-25T14:36:17;5.47;;;2.53;;
82125;SDS011;71668;51.400;6.758;2024-03-25T14:38:44;6.43;;;2.70;;
82125;SDS011;71668;51.400;6.758;2024-03-25T14:41:11;4.47;;;2.57;;
82125;SDS011;71668;51.400;6.758;2024-03-25T14:43:37;4.10;;;2.77;;
82125;SDS011;71668;51.400;6.758;2024-03-25T14:46:05;5.73;;;2.47;;
82125;SDS011;71668;51.400;6.758;2024-03-25T14:48:30;6.10;;;2.40;;
82125;SDS011;71668;51.400;6.758;2024-03-25T14:50:56;5.13;;;2.10;;
82125;SDS011;71668;51.400;6.758;2024-03-25T14:53:22;4.90;;;2.40;;
82125;SDS011;71668;51.400;6.758;2024-03-25T14:55:48;4.53;;;2.13;;
82125;SDS011;71668;51.400;6.758;2024-03-25T14:58:14;4.97;;;2.47;;
82125;SDS011;71668;51.400;6.758;2024-03-25T15:00:40;4.30;;;2.10;;
82125;SDS011;71668;51.400;6.758;2024-03-25T15:03:06;5.83;;;2.00;;
82125;SDS011;71668;51.400;6.758;2024-03-25T15:05:32;6.17;;;2.23;;
82125;SDS011;71668;51.400;6.758;2024-03-25T15:07:58;4.43;;;2.13;;
82125;SDS011;71668;51.400;6.758;2024-03-25T15:10:26;5.17;;;2.00;;
82125;SDS011;71668;51.400;6.758;2024-03-25T15:12:53;5.20;;;2.07;;
82125;SDS011;71668;51.400;6.758;2024-03-25T15:15:19;5.80;;;2.07;;
82125;SDS011;71668;51.400;6.758;2024-03-25T15:17:45;4.53;;;2.20;;
82125;SDS011;71668;51.400;6.758;2024-03-25T15:20:11;5.23;;;1.70;;
82125;SDS011;71668;51.400;6.758;2024-03-25T15:22:37;4.93;;;2.20;;
82125;SDS011;71668;51.400;6.758;2024-03-25T15:25:04;4.27;;;1.80;;
82125;SDS011;71668;51.400;6.758;2024-03-25T15:27:30;4.30;;;1.83;;
82125;SDS011;71668;51.400;6.758;2024-03-25T15:29:56;6.00;;;2.17;;
82125;SDS011;71668;51.400;6.758;2024-03-25T15:32:25;4.50;;;2.20;;
82125;SDS011;71668;51.400;6.758;2024-03-25T15:34:53;4.97;;;2.23;;
82125;SDS011;71668;51.400;6.758;2024-03-25T15:37:19;4.40;;;2.03;;
82125;SDS011;71668;51.400;6.758;2024-03-25T15:39:44;4.30;;;1.80;;
82125;SDS011;71668;51.400;6.758;2024-03-25T15:42:10;5.20;;;2.17;;
82125;SDS011;71668;51.400;6.758;2024-03-25T15:44:36;4.70;;;1.93;;
82125;SDS011;71668;51.400;6.758;2024-03-25T15:47:02;4.00;;;2.27;;
82125;SDS011;71668;51.400;6.758;2024-03-25T15:49:28;3.43;;;1.80;;
82125;SDS011;71668;51.400;6.758;2024-03-25T15:51:54;6.07;;;2.30;;
82125;SDS011;71668;51.400;6.758;2024-03-25T15:54:20;5.13;;;2.33;;
82125;SDS011;71668;51.400;6.758;2024-03-25T15:56:46;4.80;;;1.90;;
82125;SDS011;71668;51.400;6.758;2024-03-25T15:59:12;6.33;;;2.47;;
82125;SDS011;71668;51.400;6.758;2024-03-25T16:01:38;4.60;;;2.17;;
82125;SDS011;71668;51.400;6.758;2024-03-25T16:04:04;6.60;;;2.37;;
82125;SDS011;71668;51.400;6.758;2024-03-25T16:06:30;4.00;;;2.00;;
82125;SDS011;71668;51.400;6.758;2024-03-25T16:08:56;5.47;;;1.93;;
82125;SDS011;71668;51.400;6.758;2024-03-25T16:11:22;5.70;;;2.20;;
82125;SDS011;71668;51.400;6.758;2024-03-25T16:13:48;8.07;;;2.33;;
82125;SDS011;71668;51.400;6.758;2024-03-25T16:16:14;6.23;;;2.17;;
82125;SDS011;71668;51.400;6.758;2024-03-25T16:18:40;3.90;;;2.00;;
82125;SDS011;71668;51.400;6.758;2024-03-25T16:21:15;3.77;;;2.10;;
82125;SDS011;71668;51.400;6.758;2024-03-25T16:23:44;5.00;;;1.83;;
82125;SDS011;71668;51.400;6.758;2024-03-25T16:26:10;4.90;;;2.20;;
82125;SDS011;71668;51.400;6.758;2024-03-25T16:28:39;6.47;;;2.30;;
82125;SDS011;71668;51.400;6.758;2024-03-25T16:31:05;5.70;;;1.93;;
82125;SDS011;71668;51.400;6.758;2024-03-25T16:33:31;5.40;;;2.33;;
82125;SDS011;71668;51.400;6.758;2024-03-25T16:35:57;5.50;;;2.30;;
82125;SDS011;71668;51.400;6.758;2024-03-25T16:38:23;6.43;;;2.30;;
82125;SDS011;71668;51.400;6.758;2024-03-25T16:40:49;6.37;;;2.43;;
82125;SDS011;71668;51.400;6.758;2024-03-25T16:43:16;4.97;;;2.30;;
82125;SDS011;71668;51.400;6.758;2024-03-25T16:45:42;3.43;;;2.07;;
82125;SDS011;71668;51.400;6.758;2024-03-25T16:48:11;4.13;;;2.17;;
82125;SDS011;71668;51.400;6.758;2024-03-25T16:50:40;5.50;;;2.07;;
82125;SDS011;71668;51.400;6.758;2024-03-25T16:53:06;4.30;;;1.80;;
82125;SDS011;71668;51.400;6.758;2024-03-25T16:55:32;6.30;;;2.30;;
82125;SDS011;71668;51.400;6.758;2024-03-25T16:57:58;4.57;;;1.87;;
82125;SDS011;71668;51.400;6.758;2024-03-25T17:00:24;6.70;;;2.17;;
82125;SDS011;71668;51.400;6.758;2024-03-25T17:02:50;5.47;;;2.37;;
82125;SDS011;71668;51.400;6.758;2024-03-25T17:05:16;7.43;;;3.80;;
82125;SDS011;71668;51.400;6.758;2024-03-25T17:07:42;6.00;;;2.40;;
82125;SDS011;71668;51.400;6.758;2024-03-25T17:10:08;4.80;;;2.03;;
82125;SDS011;71668;51.400;6.758;2024-03-25T17:12:34;3.47;;;1.70;;
82125;SDS011;71668;51.400;6.758;2024-03-25T17:15:03;5.83;;;2.00;;
82125;SDS011;71668;51.400;6.758;2024-03-25T17:17:30;7.20;;;2.30;;
82125;SDS011;71668;51.400;6.758;2024-03-25T17:20:00;4.17;;;2.00;;
82125;SDS011;71668;51.400;6.758;2024-03-25T17:22:26;5.97;;;1.80;;
82125;SDS011;71668;51.400;6.758;2024-03-25T17:24:52;3.47;;;1.80;;
82125;SDS011;71668;51.400;6.758;2024-03-25T17:27:18;7.03;;;2.23;;
82125;SDS011;71668;51.400;6.758;2024-03-25T17:29:51;9.00;;;2.97;;
82125;SDS011;71668;51.400;6.758;2024-03-25T17:32:18;28.07;;;13.23;;
82125;SDS011;71668;51.400;6.758;2024-03-25T17:34:44;82.67;;;51.30;;
82125;SDS011;71668;51.400;6.758;2024-03-25T17:37:10;75.33;;;50.93;;
82125;SDS011;71668;51.400;6.758;2024-03-25T17:39:36;12.03;;;7.03;;
82125;SDS011;71668;51.400;6.758;2024-03-25T17:42:02;27.47;;;11.90;;
82125;SDS011;71668;51.400;6.758;2024-03-25T17:44:29;6.03;;;2.30;;
82125;SDS011;71668;51.400;6.758;2024-03-25T17:46:56;4.20;;;1.80;;
82125;SDS011;71668;51.400;6.758;2024-03-25T17:49:23;5.13;;;1.93;;
82125;SDS011;71668;51.400;6.758;2024-03-25T17:51:49;6.53;;;2.00;;
82125;SDS011;71668;51.400;6.758;2024-03-25T17:54:16;5.03;;;2.37;;
82125;SDS011;71668;51.400;6.758;2024-03-25T17:56:43;4.43;;;2.00;;
82125;SDS011;71668;51.400;6.758;2024-03-25T17:59:10;4.80;;;2.13;;
82125;SDS011;71668;51.400;6.758;2024-03-25T18:01:36;11.13;;;7.93;;
82125;SDS011;71668;51.400;6.758;2024-03-25T18:04:03;13.83;;;10.60;;
82125;SDS011;71668;51.400;6.758;2024-03-25T18:06:31;8.47;;;5.03;;
82125;SDS011;71668;51.400;6.758;2024-03-25T18:08:58;6.80;;;4.57;;
82125;SDS011;71668;51.400;6.758;2024-03-25T18:11:25;6.40;;;3.30;;
82125;SDS011;71668;51.400;6.758;2024-03-25T18:13:53;5.73;;;3.17;;
82125;SDS011;71668;51.400;6.758;2024-03-25T18:16:20;8.33;;;3.17;;
82125;SDS011;71668;51.400;6.758;2024-03-25T18:18:50;4.13;;;2.20;;
82125;SDS011;71668;51.400;6.758;2024-03-25T18:21:19;7.33;;;2.70;;
82125;SDS011;71668;51.400;6.758;2024-03-25T18:23:46;5.57;;;2.50;;
82125;SDS011;71668;51.400;6.758;2024-03-25T18:26:13;23.20;;;14.97;;
82125;SDS011;71668;51.400;6.758;2024-03-25T18:28:41;7.37;;;5.10;;
82125;SDS011;71668;51.400;6.758;2024-03-25T18:31:09;6.03;;;3.13;;
82125;SDS011;71668;51.400;6.758;2024-03-25T18:33:39;6.63;;;3.03;;
82125;SDS011;71668;51.400;6.758;2024-03-25T18:36:07;6.23;;;3.00;;
82125;SDS011;71668;51.400;6.758;2024-03-25T18:38:34;5.67;;;2.40;;
82125;SDS011;71668;51.400;6.758;2024-03-25T18:41:01;6.27;;;2.53;;
82125;SDS011;71668;51.400;6.758;2024-03-25T18:43:28;7.30;;;2.70;;
82125;SDS011;71668;51.400;6.758;2024-03-25T18:45:55;5.73;;;2.37;;
82125;SDS011;71668;51.400;6.758;2024-03-25T18:48:22;6.83;;;2.30;;
82125;SDS011;71668;51.400;6.758;2024-03-25T18:50:49;5.83;;;2.50;;
82125;SDS011;71668;51.400;6.758;2024-03-25T18:53:17;6.90;;;2.40;;
82125;SDS011;71668;51.400;6.758;2024-03-25T18:55:44;4.33;;;2.17;;
82125;SDS011;71668;51.400;6.758;2024-03-25T18:58:12;6.30;;;2.60;;
82125;SDS011;71668;51.400;6.758;2024-03-25T19:00:38;3.70;;;2.33;;
82125;SDS011;71668;51.400;6.758;2024-03-25T19:03:05;6.87;;;2.77;;
82125;SDS011;71668;51.400;6.758;2024-03-25T19:05:32;3.60;;;2.33;;
82125;SDS011;71668;51.400;6.758;2024-03-25T19:07:58;5.60;;;2.57;;
82125;SDS011;71668;51.400;6.758;2024-03-25T19:10:24;4.30;;;2.20;;
82125;SDS011;71668;51.400;6.758;2024-03-25T19:12:50;9.97;;;6.87;;
82125;SDS011;71668;51.400;6.758;2024-03-25T19:15:19;4.47;;;2.30;;
82125;SDS011;71668;51.400;6.758;2024-03-25T19:17:45;6.40;;;2.40;;
82125;SDS011;71668;51.400;6.758;2024-03-25T19:20:12;3.77;;;2.03;;
82125;SDS011;71668;51.400;6.758;2024-03-25T19:22:38;4.30;;;2.13;;
82125;SDS011;71668;51.400;6.758;2024-03-25T19:25:04;13.90;;;8.53;;
82125;SDS011;71668;51.400;6.758;2024-03-25T19:27:30;6.00;;;2.50;;
82125;SDS011;71668;51.400;6.758;2024-03-25T19:29:59;6.53;;;1.80;;
82125;SDS011;71668;51.400;6.758;2024-03-25T19:32:25;5.43;;;2.17;;
82125;SDS011;71668;51.400;6.758;2024-03-25T19:34:51;4.93;;;2.10;;
82125;SDS011;71668;51.400;6.758;2024-03-25T19:37:17;4.93;;;2.27;;
82125;SDS011;71668;51.400;6.758;2024-03-25T19:39:43;6.17;;;2.30;;
82125;SDS011;71668;51.400;6.758;2024-03-25T19:42:11;5.90;;;2.20;;
82125;SDS011;71668;51.400;6.758;2024-03-25T19:44:37;5.20;;;2.53;;
82125;SDS011;71668;51.400;6.758;2024-03-25T19:47:03;7.43;;;2.83;;
82125;SDS011;71668;51.400;6.758;2024-03-25T19:49:30;5.43;;;2.20;;
82125;SDS011;71668;51.400;6.758;2024-03-25T19:51:56;4.67;;;2.00;;
82125;SDS011;71668;51.400;6.758;2024-03-25T19:54:22;6.37;;;2.00;;
82125;SDS011;71668;51.400;6.758;2024-03-25T19:56:48;5.10;;;1.97;;
82125;SDS011;71668;51.400;6.758;2024-03-25T19:59:14;5.43;;;2.33;;
82125;SDS011;71668;51.400;6.758;2024-03-25T20:01:40;5.23;;;2.13;;
82125;SDS011;71668;51.400;6.758;2024-03-25T20:04:06;6.23;;;2.53;;
82125;SDS011;71668;51.400;6.758;2024-03-25T20:06:32;10.73;;;6.70;;
82125;SDS011;71668;51.400;6.758;2024-03-25T20:08:58;3.37;;;1.80;;
82125;SDS011;71668;51.400;6.758;2024-03-25T20:11:24;3.83;;;1.87;;
82125;SDS011;71668;51.400;6.758;2024-03-25T20:13:50;6.00;;;2.37;;
82125;SDS011;71668;51.400;6.758;2024-03-25T20:16:16;6.03;;;2.30;;
82125;SDS011;71668;51.400;6.758;2024-03-25T20:18:42;5.77;;;2.33;;
82125;SDS011;71668;51.400;6.758;2024-03-25T20:21:10;6.40;;;2.13;;
82125;SDS011;71668;51.400;6.758;2024-03-25T20:23:37;5.13;;;2.43;;
82125;SDS011;71668;51.400;6.758;2024-03-25T20:26:03;6.83;;;2.40;;
82125;SDS011;71668;51.400;6.758;2024-03-25T20:28:29;4.97;;;2.03;;
82125;SDS011;71668;51.400;6.758;2024-03-25T20:30:57;5.40;;;2.27;;
82125;SDS011;71668;51.400;6.758;2024-03-25T20:33:23;6.10;;;2.10;;
82125;SDS011;71668;51.400;6.758;2024-03-25T20:35:49;6.53;;;2.27;;
82125;SDS011;71668;51.400;6.758;2024-03-25T20:38:15;4.03;;;2.10;;
82125;SDS011;71668;51.400;6.758;2024-03-25T20:40:42;3.83;;;1.90;;
82125;SDS011;71668;51.400;6.758;2024-03-25T20:43:08;5.17;;;1.97;;
82125;SDS011;71668;51.400;6.758;2024-03-25T20:45:34;4.83;;;2.00;;
82125;SDS011;71668;51.400;6.758;2024-03-25T20:48:00;5.47;;;2.00;;
82125;SDS011;71668;51.400;6.758;2024-03-25T20:50:26;5.07;;;2.20;;
82125;SDS011;71668;51.400;6.758;2024-03-25T20:52:52;6.07;;;2.17;;
82125;SDS011;71668;51.400;6.758;2024-03-25T20:55:17;8.30;;;2.43;;
82125;SDS011;71668;51.400;6.758;2024-03-25T20:57:44;8.20;;;2.37;;
82125;SDS011;71668;51.400;6.758;2024-03-25T21:00:10;5.63;;;2.47;;
82125;SDS011;71668;51.400;6.758;2024-03-25T21:02:38;8.17;;;3.20;;
82125;SDS011;71668;51.400;6.758;2024-03-25T21:05:04;6.17;;;2.67;;
82125;SDS011;71668;51.400;6.758;2024-03-25T21:07:34;6.93;;;2.80;;
82125;SDS011;71668;51.400;6.758;2024-03-25T21:10:00;7.63;;;2.93;;
82125;SDS011;71668;51.400;6.758;2024-03-25T21:12:26;5.70;;;2.77;;
82125;SDS011;71668;51.400;6.758;2024-03-25T21:14:53;5.83;;;2.33;;
82125;SDS011;71668;51.400;6.758;2024-03-25T21:17:19;7.37;;;2.67;;
82125;SDS011;71668;51.400;6.758;2024-03-25T21:19:45;6.23;;;2.63;;
82125;SDS011;71668;51.400;6.758;2024-03-25T21:22:11;4.83;;;2.07;;
82125;SDS011;71668;51.400;6.758;2024-03-25T21:24:37;6.37;;;2.37;;
82125;SDS011;71668;51.400;6.758;2024-03-25T21:27:03;7.23;;;2.60;;
82125;SDS011;71668;51.400;6.758;2024-03-25T21:29:29;7.10;;;2.40;;
82125;SDS011;71668;51.400;6.758;2024-03-25T21:31:55;5.70;;;2.20;;
82125;SDS011;71668;51.400;6.758;2024-03-25T21:34:21;7.07;;;2.70;;
82125;SDS011;71668;51.400;6.758;2024-03-25T21:36:47;4.60;;;1.90;;
82125;SDS011;71668;51.400;6.758;2024-03-25T21:39:13;6.17;;;2.53;;
82125;SDS011;71668;51.400;6.758;2024-03-25T21:41:39;5.70;;;2.30;;
82125;SDS011;71668;51.400;6.758;2024-03-25T21:44:07;7.27;;;2.17;;
82125;SDS011;71668;51.400;6.758;2024-03-25T21:46:33;5.57;;;2.10;;
82125;SDS011;71668;51.400;6.758;2024-03-25T21:48:59;7.03;;;2.37;;
82125;SDS011;71668;51.400;6.758;2024-03-25T21:51:25;8.47;;;2.67;;
82125;SDS011;71668;51.400;6.758;2024-03-25T21:53:50;6.00;;;2.33;;
82125;SDS011;71668;51.400;6.758;2024-03-25T21:56:17;5.00;;;2.13;;
82125;SDS011;71668;51.400;6.758;2024-03-25T21:58:43;8.50;;;2.50;;
82125;SDS011;71668;51.400;6.758;2024-03-25T22:01:09;4.13;;;2.07;;
82125;SDS011;71668;51.400;6.758;2024-03-25T22:03:37;7.77;;;2.50;;
82125;SDS011;71668;51.400;6.758;2024-03-25T22:06:03;6.40;;;2.30;;
82125;SDS011;71668;51.400;6.758;2024-03-25T22:08:29;5.33;;;1.87;;
82125;SDS011;71668;51.400;6.758;2024-03-25T22:10:55;8.00;;;2.40;;
82125;SDS011;71668;51.400;6.758;2024-03-25T22:13:21;4.70;;;2.30;;
82125;SDS011;71668;51.400;6.758;2024-03-25T22:15:56;5.03;;;2.17;;
82125;SDS011;71668;51.400;6.758;2024-03-25T22:18:25;6.03;;;1.93;;
82125;SDS011;71668;51.400;6.758;2024-03-25T22:20:52;5.47;;;2.17;;
82125;SDS011;71668;51.400;6.758;2024-03-25T22:23:18;4.47;;;2.33;;
82125;SDS011;71668;51.400;6.758;2024-03-25T22:25:44;5.57;;;2.87;;
82125;SDS011;71668;51.400;6.758;2024-03-25T22:28:10;5.13;;;2.17;;
82125;SDS011;71668;51.400;6.758;2024-03-25T22:30:36;7.70;;;2.90;;
82125;SDS011;71668;51.400;6.758;2024-03-25T22:33:02;5.87;;;2.40;;
82125;SDS011;71668;51.400;6.758;2024-03-25T22:35:29;7.20;;;2.47;;
82125;SDS011;71668;51.400;6.758;2024-03-25T22:37:55;6.17;;;2.53;;
82125;SDS011;71668;51.400;6.758;2024-03-25T22:40:21;8.10;;;2.83;;
82125;SDS011;71668;51.400;6.758;2024-03-25T22:42:47;7.50;;;2.73;;
82125;SDS011;71668;51.400;6.758;2024-03-25T22:45:13;6.10;;;2.27;;
82125;SDS011;71668;51.400;6.758;2024-03-25T22:47:39;8.27;;;2.20;;
82125;SDS011;71668;51.400;6.758;2024-03-25T22:50:05;6.63;;;2.37;;
82125;SDS011;71668;51.400;6.758;2024-03-25T22:52:32;5.17;;;2.10;;
82125;SDS011;71668;51.400;6.758;2024-03-25T22:54:58;7.20;;;2.50;;
82125;SDS011;71668;51.400;6.758;2024-03-25T22:57:25;4.93;;;2.27;;
82125;SDS011;71668;51.400;6.758;2024-03-25T22:59:51;5.73;;;2.33;;
82125;SDS011;71668;51.400;6.758;2024-03-25T23:02:18;7.23;;;2.43;;
82125;SDS011;71668;51.400;6.758;2024-03-25T23:04:44;6.57;;;2.27;;
82125;SDS011;71668;51.400;6.758;2024-03-25T23:07:10;7.43;;;2.37;;
82125;SDS011;71668;51.400;6.758;2024-03-25T23:09:36;5.70;;;2.57;;
82125;SDS011;71668;51.400;6.758;2024-03-25T23:12:02;5.17;;;2.40;;